Terminal Aerodrome Forecast
Issued by NWS

Home | Current Version | Previous Version | Text Only | Print | Product List | Glossary On
Versions: 1 2 3 4 5 6 7 8 9 10 11 12 13 14 15 16 17 18 19 20 21
052
FTUS42 KGSP 270530
TAFAND
TAF
KAND 270530Z 2706/2806 18004KT P6SM BKN060
     FM271400 19007KT P6SM VCSH BKN025
     FM271600 20012G20KT P6SM OVC015 PROB30 2717/2721 4SM -TSRA
      OVC007CB
     FM272100 23011KT P6SM BKN030
     FM272300 23007KT P6SM BKN050
     FM280300 VRB02KT P6SM SCT060=

USA.gov is the U.S. government's official web portal to all federal, state and local government web resources and services.